sensor_id;sensor_type;location;lat;lon;timestamp;temperature;humidity
53643;DHT22;39546;45.534;12.048;2023-04-24T00:10:27;18.50;79.20
53643;DHT22;39546;45.534;12.048;2023-04-24T00:16:29;18.40;79.20
53643;DHT22;39546;45.534;12.048;2023-04-24T00:22:33;18.30;79.20
53643;DHT22;39546;45.534;12.048;2023-04-24T00:28:35;18.30;79.20
53643;DHT22;39546;45.534;12.048;2023-04-24T00:34:38;18.20;79.20
53643;DHT22;39546;45.534;12.048;2023-04-24T00:40:40;18.20;79.50
53643;DHT22;39546;45.534;12.048;2023-04-24T00:46:43;18.20;79.60
53643;DHT22;39546;45.534;12.048;2023-04-24T00:52:45;18.10;79.60
53643;DHT22;39546;45.534;12.048;2023-04-24T00:58:47;18.10;79.70
53643;DHT22;39546;45.534;12.048;2023-04-24T01:04:52;18.00;79.70
53643;DHT22;39546;45.534;12.048;2023-04-24T01:10:55;18.00;79.70
53643;DHT22;39546;45.534;12.048;2023-04-24T01:16:58;18.00;79.50
53643;DHT22;39546;45.534;12.048;2023-04-24T01:23:01;18.00;79.50
53643;DHT22;39546;45.534;12.048;2023-04-24T01:29:04;17.90;79.60
53643;DHT22;39546;45.534;12.048;2023-04-24T01:35:07;17.90;79.80
53643;DHT22;39546;45.534;12.048;2023-04-24T01:41:09;17.90;79.90
53643;DHT22;39546;45.534;12.048;2023-04-24T01:47:12;18.00;79.60
53643;DHT22;39546;45.534;12.048;2023-04-24T01:53:15;18.00;79.80
53643;DHT22;39546;45.534;12.048;2023-04-24T01:59:17;17.90;80.00
53643;DHT22;39546;45.534;12.048;2023-04-24T02:05:20;17.80;80.10
53643;DHT22;39546;45.534;12.048;2023-04-24T02:11:23;17.90;80.10
53643;DHT22;39546;45.534;12.048;2023-04-24T02:17:26;17.90;80.30
53643;DHT22;39546;45.534;12.048;2023-04-24T02:23:28;17.90;80.60
53643;DHT22;39546;45.534;12.048;2023-04-24T02:29:30;17.80;80.70
53643;DHT22;39546;45.534;12.048;2023-04-24T02:35:32;17.70;81.00
53643;DHT22;39546;45.534;12.048;2023-04-24T02:41:34;17.80;81.00
53643;DHT22;39546;45.534;12.048;2023-04-24T02:47:36;17.80;80.70
53643;DHT22;39546;45.534;12.048;2023-04-24T02:53:38;17.80;80.60
53643;DHT22;39546;45.534;12.048;2023-04-24T02:59:40;17.80;80.70
53643;DHT22;39546;45.534;12.048;2023-04-24T03:05:42;17.70;80.60
53643;DHT22;39546;45.534;12.048;2023-04-24T03:11:44;17.70;80.70
53643;DHT22;39546;45.534;12.048;2023-04-24T03:17:46;17.70;80.50
53643;DHT22;39546;45.534;12.048;2023-04-24T03:23:48;17.70;80.60
53643;DHT22;39546;45.534;12.048;2023-04-24T03:29:50;17.70;80.50
53643;DHT22;39546;45.534;12.048;2023-04-24T03:35:58;17.70;80.30
53643;DHT22;39546;45.534;12.048;2023-04-24T03:42:00;17.70;80.40
53643;DHT22;39546;45.534;12.048;2023-04-24T03:48:02;17.80;80.20
53643;DHT22;39546;45.534;12.048;2023-04-24T03:54:05;17.70;80.20
53643;DHT22;39546;45.534;12.048;2023-04-24T04:00:09;17.70;80.30
53643;DHT22;39546;45.534;12.048;2023-04-24T04:06:16;17.70;80.20
53643;DHT22;39546;45.534;12.048;2023-04-24T04:12:21;17.70;80.20
53643;DHT22;39546;45.534;12.048;2023-04-24T04:18:24;17.70;80.10
53643;DHT22;39546;45.534;12.048;2023-04-24T04:24:26;17.70;80.10
53643;DHT22;39546;45.534;12.048;2023-04-24T04:30:29;17.70;80.00
53643;DHT22;39546;45.534;12.048;2023-04-24T04:36:40;17.70;80.00
53643;DHT22;39546;45.534;12.048;2023-04-24T04:42:46;17.70;80.00
53643;DHT22;39546;45.534;12.048;2023-04-24T04:48:50;17.60;80.20
53643;DHT22;39546;45.534;12.048;2023-04-24T04:54:52;17.60;80.20
53643;DHT22;39546;45.534;12.048;2023-04-24T05:00:55;17.50;80.20
53643;DHT22;39546;45.534;12.048;2023-04-24T05:06:59;17.30;80.10
53643;DHT22;39546;45.534;12.048;2023-04-24T05:13:03;17.30;80.20
53643;DHT22;39546;45.534;12.048;2023-04-24T05:19:07;17.20;80.20
53643;DHT22;39546;45.534;12.048;2023-04-24T05:25:09;17.10;80.90
53643;DHT22;39546;45.534;12.048;2023-04-24T05:31:12;17.10;80.90
53643;DHT22;39546;45.534;12.048;2023-04-24T05:37:15;17.10;80.90
53643;DHT22;39546;45.534;12.048;2023-04-24T05:43:17;17.10;80.80
53643;DHT22;39546;45.534;12.048;2023-04-24T05:49:19;17.10;80.80
53643;DHT22;39546;45.534;12.048;2023-04-24T05:55:21;17.00;80.80
53643;DHT22;39546;45.534;12.048;2023-04-24T06:01:30;17.00;80.90
53643;DHT22;39546;45.534;12.048;2023-04-24T06:07:34;16.90;81.20
53643;DHT22;39546;45.534;12.048;2023-04-24T06:13:37;16.90;81.30
53643;DHT22;39546;45.534;12.048;2023-04-24T06:19:49;16.90;81.20
53643;DHT22;39546;45.534;12.048;2023-04-24T06:25:52;16.80;81.40
53643;DHT22;39546;45.534;12.048;2023-04-24T06:32:04;16.80;81.40
53643;DHT22;39546;45.534;12.048;2023-04-24T06:38:07;16.80;81.50
53643;DHT22;39546;45.534;12.048;2023-04-24T06:44:10;16.80;81.50
53643;DHT22;39546;45.534;12.048;2023-04-24T06:50:20;16.80;81.60
53643;DHT22;39546;45.534;12.048;2023-04-24T07:03:03;16.90;81.70
53643;DHT22;39546;45.534;12.048;2023-04-24T07:09:09;16.80;81.90
53643;DHT22;39546;45.534;12.048;2023-04-24T07:15:11;16.80;81.90
53643;DHT22;39546;45.534;12.048;2023-04-24T07:21:23;16.90;81.50
53643;DHT22;39546;45.534;12.048;2023-04-24T07:27:25;16.80;81.30
53643;DHT22;39546;45.534;12.048;2023-04-24T07:33:27;16.90;81.20
53643;DHT22;39546;45.534;12.048;2023-04-24T07:39:29;16.80;80.90
53643;DHT22;39546;45.534;12.048;2023-04-24T07:45:31;16.70;80.40
53643;DHT22;39546;45.534;12.048;2023-04-24T07:51:35;16.50;80.60
53643;DHT22;39546;45.534;12.048;2023-04-24T07:57:40;16.50;80.80
53643;DHT22;39546;45.534;12.048;2023-04-24T08:03:41;16.50;82.10
53643;DHT22;39546;45.534;12.048;2023-04-24T08:09:44;16.40;83.20
53643;DHT22;39546;45.534;12.048;2023-04-24T08:15:46;16.40;84.10
53643;DHT22;39546;45.534;12.048;2023-04-24T08:21:48;16.30;84.50
53643;DHT22;39546;45.534;12.048;2023-04-24T08:27:50;16.20;84.30
53643;DHT22;39546;45.534;12.048;2023-04-24T08:33:52;16.30;84.40
53643;DHT22;39546;45.534;12.048;2023-04-24T08:39:54;16.50;84.40
53643;DHT22;39546;45.534;12.048;2023-04-24T08:45:57;16.50;84.20
53643;DHT22;39546;45.534;12.048;2023-04-24T08:51:59;16.60;84.20
53643;DHT22;39546;45.534;12.048;2023-04-24T08:58:02;16.70;84.00
53643;DHT22;39546;45.534;12.048;2023-04-24T09:04:04;16.80;84.00
53643;DHT22;39546;45.534;12.048;2023-04-24T09:10:09;16.80;84.10
53643;DHT22;39546;45.534;12.048;2023-04-24T09:16:11;17.00;83.90
53643;DHT22;39546;45.534;12.048;2023-04-24T09:22:15;17.00;83.70
53643;DHT22;39546;45.534;12.048;2023-04-24T09:28:17;16.90;83.50
53643;DHT22;39546;45.534;12.048;2023-04-24T09:34:26;16.80;83.20
53643;DHT22;39546;45.534;12.048;2023-04-24T09:40:28;16.80;82.70
53643;DHT22;39546;45.534;12.048;2023-04-24T09:46:32;17.00;82.80
53643;DHT22;39546;45.534;12.048;2023-04-24T09:52:34;17.20;82.90
53643;DHT22;39546;45.534;12.048;2023-04-24T09:58:36;17.50;82.40
53643;DHT22;39546;45.534;12.048;2023-04-24T10:04:39;17.80;82.20
53643;DHT22;39546;45.534;12.048;2023-04-24T10:10:44;18.10;81.90
53643;DHT22;39546;45.534;12.048;2023-04-24T10:16:47;18.00;81.30
53643;DHT22;39546;45.534;12.048;2023-04-24T10:22:51;17.70;79.90
53643;DHT22;39546;45.534;12.048;2023-04-24T10:28:54;17.60;81.10
53643;DHT22;39546;45.534;12.048;2023-04-24T10:34:59;17.60;81.20
53643;DHT22;39546;45.534;12.048;2023-04-24T10:41:12;17.60;81.30
53643;DHT22;39546;45.534;12.048;2023-04-24T10:47:24;17.50;80.60
53643;DHT22;39546;45.534;12.048;2023-04-24T10:53:30;17.50;80.10
53643;DHT22;39546;45.534;12.048;2023-04-24T10:59:35;17.50;80.70
53643;DHT22;39546;45.534;12.048;2023-04-24T11:06:05;17.80;80.50
53643;DHT22;39546;45.534;12.048;2023-04-24T11:12:10;18.00;80.70
53643;DHT22;39546;45.534;12.048;2023-04-24T11:18:16;18.20;81.10
53643;DHT22;39546;45.534;12.048;2023-04-24T11:30:49;18.20;80.60
53643;DHT22;39546;45.534;12.048;2023-04-24T11:36:53;18.40;80.50
53643;DHT22;39546;45.534;12.048;2023-04-24T11:42:55;18.50;80.60
53643;DHT22;39546;45.534;12.048;2023-04-24T11:48:58;18.80;80.40
53643;DHT22;39546;45.534;12.048;2023-04-24T11:55:01;19.20;80.00
53643;DHT22;39546;45.534;12.048;2023-04-24T12:01:04;19.10;79.10
53643;DHT22;39546;45.534;12.048;2023-04-24T12:07:07;19.10;78.60
53643;DHT22;39546;45.534;12.048;2023-04-24T12:13:13;19.30;79.40
53643;DHT22;39546;45.534;12.048;2023-04-24T12:19:20;19.50;78.60
53643;DHT22;39546;45.534;12.048;2023-04-24T12:25:31;19.70;79.00
53643;DHT22;39546;45.534;12.048;2023-04-24T12:31:33;19.70;78.40
53643;DHT22;39546;45.534;12.048;2023-04-24T12:37:35;19.80;78.90
53643;DHT22;39546;45.534;12.048;2023-04-24T12:43:38;19.80;77.70
53643;DHT22;39546;45.534;12.048;2023-04-24T12:49:40;19.90;78.20
53643;DHT22;39546;45.534;12.048;2023-04-24T12:55:42;20.10;78.80
53643;DHT22;39546;45.534;12.048;2023-04-24T13:01:46;20.00;77.40
53643;DHT22;39546;45.534;12.048;2023-04-24T13:07:48;20.20;77.40
53643;DHT22;39546;45.534;12.048;2023-04-24T13:13:50;20.30;75.70
53643;DHT22;39546;45.534;12.048;2023-04-24T13:19:54;20.50;74.50
53643;DHT22;39546;45.534;12.048;2023-04-24T13:25:56;20.60;72.50
53643;DHT22;39546;45.534;12.048;2023-04-24T13:31:59;20.80;72.10
53643;DHT22;39546;45.534;12.048;2023-04-24T13:38:02;21.00;72.90
53643;DHT22;39546;45.534;12.048;2023-04-24T13:44:07;20.90;72.10
53643;DHT22;39546;45.534;12.048;2023-04-24T13:50:09;21.00;71.80
53643;DHT22;39546;45.534;12.048;2023-04-24T13:56:12;21.20;70.80
53643;DHT22;39546;45.534;12.048;2023-04-24T14:02:15;21.20;69.30
53643;DHT22;39546;45.534;12.048;2023-04-24T14:08:17;21.10;69.00
53643;DHT22;39546;45.534;12.048;2023-04-24T14:14:19;20.90;70.00
53643;DHT22;39546;45.534;12.048;2023-04-24T14:20:23;21.00;68.70
53643;DHT22;39546;45.534;12.048;2023-04-24T14:26:25;21.10;67.80
53643;DHT22;39546;45.534;12.048;2023-04-24T14:32:27;21.40;67.40
53643;DHT22;39546;45.534;12.048;2023-04-24T14:38:29;21.50;67.40
53643;DHT22;39546;45.534;12.048;2023-04-24T14:44:33;21.50;66.20
53643;DHT22;39546;45.534;12.048;2023-04-24T14:50:35;21.50;66.20
53643;DHT22;39546;45.534;12.048;2023-04-24T14:56:37;21.60;65.90
53643;DHT22;39546;45.534;12.048;2023-04-24T15:02:42;21.80;66.00
53643;DHT22;39546;45.534;12.048;2023-04-24T15:08:46;21.90;65.90
53643;DHT22;39546;45.534;12.048;2023-04-24T15:14:48;22.20;65.80
53643;DHT22;39546;45.534;12.048;2023-04-24T15:20:50;22.30;64.90
53643;DHT22;39546;45.534;12.048;2023-04-24T15:27:11;22.30;64.00
53643;DHT22;39546;45.534;12.048;2023-04-24T15:33:13;22.30;62.60
53643;DHT22;39546;45.534;12.048;2023-04-24T15:39:15;22.40;62.50
53643;DHT22;39546;45.534;12.048;2023-04-24T15:45:18;22.60;61.50
53643;DHT22;39546;45.534;12.048;2023-04-24T15:51:20;22.50;62.10
53643;DHT22;39546;45.534;12.048;2023-04-24T15:57:22;22.50;61.40
53643;DHT22;39546;45.534;12.048;2023-04-24T16:03:24;22.40;61.10
53643;DHT22;39546;45.534;12.048;2023-04-24T16:09:26;22.40;61.10
53643;DHT22;39546;45.534;12.048;2023-04-24T16:15:29;22.20;61.10
53643;DHT22;39546;45.534;12.048;2023-04-24T16:21:31;21.60;63.40
53643;DHT22;39546;45.534;12.048;2023-04-24T16:27:34;21.20;63.90
53643;DHT22;39546;45.534;12.048;2023-04-24T16:33:36;20.80;64.70
53643;DHT22;39546;45.534;12.048;2023-04-24T16:39:38;20.40;65.50
53643;DHT22;39546;45.534;12.048;2023-04-24T16:45:45;20.30;65.60
53643;DHT22;39546;45.534;12.048;2023-04-24T16:51:47;20.20;66.30
53643;DHT22;39546;45.534;12.048;2023-04-24T16:57:49;20.20;66.30
53643;DHT22;39546;45.534;12.048;2023-04-24T17:03:51;20.10;65.90
53643;DHT22;39546;45.534;12.048;2023-04-24T17:09:53;20.00;66.10
53643;DHT22;39546;45.534;12.048;2023-04-24T17:15:56;19.80;66.30
53643;DHT22;39546;45.534;12.048;2023-04-24T17:21:59;19.60;67.60
53643;DHT22;39546;45.534;12.048;2023-04-24T17:28:01;19.40;67.70
53643;DHT22;39546;45.534;12.048;2023-04-24T17:34:03;19.30;67.80
53643;DHT22;39546;45.534;12.048;2023-04-24T17:40:05;19.40;67.80
53643;DHT22;39546;45.534;12.048;2023-04-24T17:46:08;19.50;68.20
53643;DHT22;39546;45.534;12.048;2023-04-24T17:52:10;19.50;68.40
53643;DHT22;39546;45.534;12.048;2023-04-24T17:58:13;19.60;68.80
53643;DHT22;39546;45.534;12.048;2023-04-24T18:04:15;19.50;69.00
53643;DHT22;39546;45.534;12.048;2023-04-24T18:10:17;19.50;69.00
53643;DHT22;39546;45.534;12.048;2023-04-24T18:16:19;19.30;69.40
53643;DHT22;39546;45.534;12.048;2023-04-24T18:22:22;19.30;70.60
53643;DHT22;39546;45.534;12.048;2023-04-24T18:28:24;19.20;71.10
53643;DHT22;39546;45.534;12.048;2023-04-24T18:34:26;19.20;71.20
53643;DHT22;39546;45.534;12.048;2023-04-24T18:40:29;19.20;71.20
53643;DHT22;39546;45.534;12.048;2023-04-24T18:46:31;19.10;71.40
53643;DHT22;39546;45.534;12.048;2023-04-24T18:52:38;19.00;71.80
53643;DHT22;39546;45.534;12.048;2023-04-24T18:58:40;18.80;72.20
53643;DHT22;39546;45.534;12.048;2023-04-24T19:04:45;18.60;73.00
53643;DHT22;39546;45.534;12.048;2023-04-24T19:10:47;18.50;73.60
53643;DHT22;39546;45.534;12.048;2023-04-24T19:16:49;18.50;74.30
53643;DHT22;39546;45.534;12.048;2023-04-24T19:22:51;18.50;74.50
53643;DHT22;39546;45.534;12.048;2023-04-24T19:28:54;18.60;75.00
53643;DHT22;39546;45.534;12.048;2023-04-24T19:34:58;18.60;74.90
53643;DHT22;39546;45.534;12.048;2023-04-24T19:41:00;18.60;75.00
53643;DHT22;39546;45.534;12.048;2023-04-24T19:47:02;18.50;75.30
53643;DHT22;39546;45.534;12.048;2023-04-24T19:53:04;18.50;75.20
53643;DHT22;39546;45.534;12.048;2023-04-24T19:59:09;18.50;75.30
53643;DHT22;39546;45.534;12.048;2023-04-24T20:05:11;18.30;75.20
53643;DHT22;39546;45.534;12.048;2023-04-24T20:11:13;18.20;75.50
53643;DHT22;39546;45.534;12.048;2023-04-24T20:17:16;18.20;75.60
53643;DHT22;39546;45.534;12.048;2023-04-24T20:23:18;18.10;75.70
53643;DHT22;39546;45.534;12.048;2023-04-24T20:29:20;18.10;76.30
53643;DHT22;39546;45.534;12.048;2023-04-24T20:35:22;18.00;76.30
53643;DHT22;39546;45.534;12.048;2023-04-24T20:41:25;18.00;76.10
53643;DHT22;39546;45.534;12.048;2023-04-24T20:47:27;18.00;76.10
53643;DHT22;39546;45.534;12.048;2023-04-24T20:53:29;18.00;75.90
53643;DHT22;39546;45.534;12.048;2023-04-24T20:59:31;18.00;76.20
53643;DHT22;39546;45.534;12.048;2023-04-24T21:05:33;18.00;76.40
53643;DHT22;39546;45.534;12.048;2023-04-24T21:11:35;18.00;76.50
53643;DHT22;39546;45.534;12.048;2023-04-24T21:17:37;18.00;76.30
53643;DHT22;39546;45.534;12.048;2023-04-24T21:23:40;17.90;76.70
53643;DHT22;39546;45.534;12.048;2023-04-24T21:29:42;17.90;77.10
53643;DHT22;39546;45.534;12.048;2023-04-24T21:35:44;17.90;77.10
53643;DHT22;39546;45.534;12.048;2023-04-24T21:41:46;17.70;77.90
53643;DHT22;39546;45.534;12.048;2023-04-24T21:47:48;17.80;77.80
53643;DHT22;39546;45.534;12.048;2023-04-24T21:53:50;17.80;77.80
53643;DHT22;39546;45.534;12.048;2023-04-24T21:59:52;17.60;78.20
53643;DHT22;39546;45.534;12.048;2023-04-24T22:05:55;17.50;78.20
53643;DHT22;39546;45.534;12.048;2023-04-24T22:11:57;17.40;78.20
53643;DHT22;39546;45.534;12.048;2023-04-24T22:17:59;17.40;78.40
53643;DHT22;39546;45.534;12.048;2023-04-24T22:24:01;17.30;78.80
53643;DHT22;39546;45.534;12.048;2023-04-24T22:30:44;17.40;78.50
53643;DHT22;39546;45.534;12.048;2023-04-24T22:36:47;17.20;78.50
53643;DHT22;39546;45.534;12.048;2023-04-24T22:42:48;17.10;79.20
53643;DHT22;39546;45.534;12.048;2023-04-24T22:48:50;17.20;79.30
53643;DHT22;39546;45.534;12.048;2023-04-24T22:54:52;17.20;79.20
53643;DHT22;39546;45.534;12.048;2023-04-24T23:00:54;17.20;78.70
53643;DHT22;39546;45.534;12.048;2023-04-24T23:06:56;17.30;78.50
53643;DHT22;39546;45.534;12.048;2023-04-24T23:12:59;17.20;78.20
53643;DHT22;39546;45.534;12.048;2023-04-24T23:19:01;17.20;78.70
53643;DHT22;39546;45.534;12.048;2023-04-24T23:25:03;17.10;79.00
53643;DHT22;39546;45.534;12.048;2023-04-24T23:31:05;17.00;79.70
53643;DHT22;39546;45.534;12.048;2023-04-24T23:37:08;16.90;80.20
53643;DHT22;39546;45.534;12.048;2023-04-24T23:43:10;16.90;80.00
53643;DHT22;39546;45.534;12.048;2023-04-24T23:49:13;16.70;79.80
53643;DHT22;39546;45.534;12.048;2023-04-24T23:55:15;16.50;79.90
